createdAt,value
2022-11-19T00:00:50.815Z,-2.31
2022-11-19T00:03:19.661Z,-2.33
2022-11-19T00:05:48.330Z,-2.32
2022-11-19T00:08:19.706Z,-2.42
2022-11-19T00:10:46.680Z,-2.40
2022-11-19T00:13:14.816Z,-2.32
2022-11-19T00:15:41.531Z,-2.34
2022-11-19T00:18:08.367Z,-2.36
2022-11-19T00:20:35.678Z,-2.36
2022-11-19T00:23:02.329Z,-2.44
2022-11-19T00:25:30.333Z,-2.42
2022-11-19T00:27:57.613Z,-2.43
2022-11-19T00:30:47.081Z,-2.49
2022-11-19T00:33:10.502Z,-2.65
2022-11-19T00:35:36.924Z,-2.75
2022-11-19T00:38:03.382Z,-2.66
2022-11-19T00:40:29.815Z,-2.65
2022-11-19T00:43:14.835Z,-2.73
2022-11-19T00:45:44.387Z,-2.80
2022-11-19T00:48:10.943Z,-2.73
2022-11-19T00:50:37.360Z,-2.70
2022-11-19T00:53:03.794Z,-2.70
2022-11-19T00:55:30.314Z,-2.72
2022-11-19T00:57:56.681Z,-2.74
2022-11-19T01:00:23.315Z,-2.72
2022-11-19T01:02:49.692Z,-2.78
2022-11-19T01:05:16.172Z,-2.87
2022-11-19T01:07:42.608Z,-2.88
2022-11-19T01:10:09.350Z,-2.84
2022-11-19T01:12:55.704Z,-2.99
2022-11-19T01:15:22.103Z,-2.89
2022-11-19T01:17:48.589Z,-2.90
2022-11-19T01:20:15.460Z,-2.89
2022-11-19T01:22:42.167Z,-2.98
2022-11-19T01:25:09.145Z,-3.02
2022-11-19T01:27:35.589Z,-3.05
2022-11-19T01:30:02.014Z,-3.00
2022-11-19T01:32:28.444Z,-3.06
2022-11-19T01:34:54.938Z,-3.00
2022-11-19T01:37:21.321Z,-3.05
2022-11-19T01:39:47.825Z,-3.07
2022-11-19T01:42:48.025Z,-3.16
2022-11-19T01:45:35.623Z,-3.17
2022-11-19T01:48:04.902Z,-3.17
2022-11-19T01:50:34.884Z,-3.12
2022-11-19T01:53:01.752Z,-3.15
2022-11-19T01:55:28.559Z,-3.10
2022-11-19T01:58:00.115Z,-3.17
2022-11-19T02:00:27.621Z,-3.07
2022-11-19T02:02:54.316Z,-3.15
2022-11-19T02:05:21.689Z,-3.32
2022-11-19T02:07:53.872Z,-3.23
2022-11-19T02:10:28.127Z,-3.19
2022-11-19T02:13:22.451Z,-3.18
2022-11-19T02:16:05.234Z,-3.20
2022-11-19T02:18:31.585Z,-3.17
2022-11-19T02:21:06.869Z,-3.24
2022-11-19T02:23:52.037Z,-3.13
2022-11-19T02:26:33.582Z,-3.16
2022-11-19T02:29:21.995Z,-3.24
2022-11-19T02:31:56.538Z,-3.33
2022-11-19T02:34:41.329Z,-3.29
2022-11-19T02:37:19.537Z,-3.48
2022-11-19T02:39:57.817Z,-3.34
2022-11-19T02:42:30.936Z,-3.31
2022-11-19T02:45:02.881Z,-3.37
2022-11-19T02:47:38.961Z,-3.38
2022-11-19T02:50:16.543Z,-3.66
2022-11-19T02:52:45.129Z,-3.44
2022-11-19T02:55:16.795Z,-3.46
2022-11-19T02:57:48.311Z,-3.42
2022-11-19T03:00:33.288Z,-3.46
2022-11-19T03:03:23.909Z,-3.38
2022-11-19T03:05:55.765Z,-3.37
2022-11-19T03:08:22.298Z,-3.32
2022-11-19T03:11:17.649Z,-3.36
2022-11-19T03:14:40.549Z,-3.34
2022-11-19T03:17:10.972Z,-3.32
2022-11-19T03:19:40.740Z,-3.32
2022-11-19T03:22:24.583Z,-3.30
2022-11-19T03:25:03.133Z,-3.32
2022-11-19T03:27:36.411Z,-3.37
2022-11-19T03:30:04.583Z,-3.42
2022-11-19T03:32:39.411Z,-3.35
2022-11-19T03:35:11.697Z,-3.45
2022-11-19T03:37:42.381Z,-3.49
2022-11-19T03:40:11.450Z,-3.43
2022-11-19T03:42:40.871Z,-3.36
2022-11-19T03:45:15.591Z,-3.35
2022-11-19T03:47:44.857Z,-3.37
2022-11-19T03:50:39.095Z,-3.57
2022-11-19T03:53:05.520Z,-3.47
2022-11-19T03:55:45.347Z,-3.41
2022-11-19T03:58:12.113Z,-3.32
2022-11-19T04:00:38.556Z,-3.18
2022-11-19T04:03:05.111Z,-3.08
2022-11-19T04:05:31.483Z,-3.04
2022-11-19T04:07:57.838Z,-2.97
2022-11-19T04:10:24.320Z,-2.97
2022-11-19T04:12:50.735Z,-2.95
2022-11-19T04:15:17.181Z,-2.91
2022-11-19T04:17:43.670Z,-2.87
2022-11-19T04:20:10.302Z,-2.89
2022-11-19T04:22:36.723Z,-2.78
2022-11-19T04:25:03.648Z,-2.78
2022-11-19T04:27:30.024Z,-2.81
2022-11-19T04:29:56.403Z,-2.90
2022-11-19T04:32:22.942Z,-2.79
2022-11-19T04:34:49.509Z,-2.82
2022-11-19T04:37:15.867Z,-2.74
2022-11-19T04:39:42.231Z,-2.84
2022-11-19T04:42:08.704Z,-2.77
2022-11-19T04:44:35.083Z,-2.83
2022-11-19T04:47:01.549Z,-2.85
2022-11-19T04:49:27.910Z,-2.74
2022-11-19T04:51:54.355Z,-2.67
2022-11-19T04:54:20.744Z,-2.74
2022-11-19T04:56:47.120Z,-2.80
2022-11-19T04:59:13.522Z,-2.87
2022-11-19T05:01:39.939Z,-2.93
2022-11-19T05:04:06.315Z,-3.02
2022-11-19T05:06:33.422Z,-3.08
2022-11-19T05:08:59.898Z,-2.97
2022-11-19T05:11:26.395Z,-2.92
2022-11-19T05:13:52.903Z,-2.99
2022-11-19T05:16:19.279Z,-2.93
2022-11-19T05:18:45.658Z,-2.80
2022-11-19T05:21:12.237Z,-2.72
2022-11-19T05:23:38.629Z,-2.65
2022-11-19T05:26:05.189Z,-2.45
2022-11-19T05:28:39.030Z,-2.36
2022-11-19T05:31:06.863Z,-2.26
2022-11-19T05:33:34.381Z,-2.11
2022-11-19T05:36:01.513Z,-2.03
2022-11-19T05:38:27.958Z,-2.10
2022-11-19T05:40:54.514Z,-1.91
2022-11-19T05:43:20.926Z,-1.72
2022-11-19T05:45:47.373Z,-1.76
2022-11-19T05:48:13.782Z,-1.70
2022-11-19T05:50:42.385Z,-1.71
2022-11-19T05:53:09.407Z,-1.55
2022-11-19T05:55:35.775Z,-1.52
2022-11-19T05:58:02.140Z,-1.42
2022-11-19T06:00:28.569Z,-1.49
2022-11-19T06:02:54.955Z,-1.30
2022-11-19T06:05:21.397Z,-1.30
2022-11-19T06:07:47.786Z,-1.31
2022-11-19T06:10:14.244Z,-1.29
2022-11-19T06:12:45.842Z,-1.20
2022-11-19T06:15:13.094Z,-1.22
2022-11-19T06:17:39.515Z,-1.21
2022-11-19T06:20:08.733Z,-1.09
2022-11-19T06:22:35.585Z,-1.03
2022-11-19T06:25:02.327Z,-1.20
2022-11-19T06:27:28.736Z,-0.98
2022-11-19T06:29:56.434Z,-1.07
2022-11-19T06:32:23.544Z,-1.14
2022-11-19T06:34:50.051Z,-1.08
2022-11-19T06:37:16.524Z,-1.16
2022-11-19T06:39:42.918Z,-1.07
2022-11-19T06:42:27.652Z,-1.03
2022-11-19T06:44:54.024Z,-1.00
2022-11-19T06:47:20.446Z,-0.92
2022-11-19T06:49:46.834Z,-1.11
2022-11-19T06:52:13.195Z,-1.14
2022-11-19T06:54:43.120Z,-1.02
2022-11-19T06:57:10.084Z,-1.01
2022-11-19T06:59:38.784Z,-0.97
2022-11-19T07:02:05.710Z,-0.83
2022-11-19T07:04:32.242Z,-0.82
2022-11-19T07:06:59.135Z,-0.80
2022-11-19T07:09:25.641Z,-0.94
2022-11-19T07:11:52.121Z,-0.72
2022-11-19T07:14:18.479Z,-0.83
2022-11-19T07:16:45.082Z,-0.99
2022-11-19T07:19:11.585Z,-0.99
2022-11-19T07:21:38.078Z,-0.78
2022-11-19T07:24:07.221Z,-0.57
2022-11-19T07:26:34.912Z,-0.58
2022-11-19T07:29:04.970Z,-0.50
2022-11-19T07:31:31.610Z,-0.45
2022-11-19T07:33:58.036Z,-0.45
2022-11-19T07:36:24.602Z,-0.55
2022-11-19T07:38:52.242Z,-0.60
2022-11-19T07:41:38.267Z,-0.42
2022-11-19T07:44:04.995Z,-0.41
2022-11-19T07:46:31.412Z,-0.26
2022-11-19T07:48:58.259Z,-0.46
2022-11-19T07:51:25.527Z,-0.17
2022-11-19T07:53:52.389Z,-0.12
2022-11-19T07:56:19.838Z,-0.20
2022-11-19T07:58:46.448Z,-0.11
2022-11-19T08:01:17.742Z,0.01
2022-11-19T08:03:47.205Z,-0.03
2022-11-19T08:06:16.138Z,0.03
2022-11-19T08:08:43.167Z,0.05
2022-11-19T08:11:11.258Z,0.06
2022-11-19T08:13:39.650Z,0.12
2022-11-19T08:16:09.611Z,0.17
2022-11-19T08:18:36.437Z,0.09
2022-11-19T08:21:09.359Z,0.24
2022-11-19T08:23:37.651Z,0.37
2022-11-19T08:26:06.532Z,0.21
2022-11-19T08:28:33.719Z,0.25
2022-11-19T08:31:07.978Z,0.42
2022-11-19T08:33:35.233Z,0.33
2022-11-19T08:36:02.030Z,0.35
2022-11-19T08:38:28.435Z,0.36
2022-11-19T08:41:15.139Z,0.42
2022-11-19T08:43:42.186Z,0.58
2022-11-19T08:46:09.259Z,0.60
2022-11-19T08:48:35.666Z,0.54
2022-11-19T08:51:06.718Z,0.66
2022-11-19T08:53:33.395Z,0.81
2022-11-19T08:55:59.896Z,0.86
2022-11-19T08:58:26.349Z,0.74
2022-11-19T09:00:53.095Z,0.80
2022-11-19T09:03:19.491Z,0.84
2022-11-19T09:05:45.954Z,1.01
2022-11-19T09:08:12.394Z,1.10
2022-11-19T09:10:38.971Z,1.09
2022-11-19T09:13:05.866Z,1.09
2022-11-19T09:15:32.973Z,1.10
2022-11-19T09:17:59.413Z,1.22
2022-11-19T09:20:25.807Z,1.27
2022-11-19T09:22:52.363Z,1.21
2022-11-19T09:25:18.924Z,1.34
2022-11-19T09:27:45.408Z,1.23
2022-11-19T09:30:12.343Z,1.26
2022-11-19T09:32:38.805Z,1.35
2022-11-19T09:35:05.652Z,1.17
2022-11-19T09:37:33.992Z,1.27
2022-11-19T09:40:00.658Z,1.32
2022-11-19T09:42:46.362Z,1.34
2022-11-19T09:45:24.729Z,1.38
2022-11-19T09:48:09.835Z,1.36
2022-11-19T09:51:02.706Z,1.35
2022-11-19T09:53:34.403Z,1.40
2022-11-19T09:56:00.989Z,1.40
2022-11-19T09:58:41.867Z,1.39
2022-11-19T10:01:17.354Z,1.72
2022-11-19T10:03:53.261Z,1.69
2022-11-19T10:06:24.132Z,1.57
2022-11-19T10:09:21.284Z,1.45
2022-11-19T10:12:06.174Z,1.50
2022-11-19T10:15:15.325Z,1.55
2022-11-19T10:17:47.809Z,1.72
2022-11-19T10:20:52.938Z,1.75
2022-11-19T10:23:30.348Z,1.67
2022-11-19T10:26:04.998Z,1.54
2022-11-19T10:28:37.386Z,1.74
2022-11-19T10:31:52.976Z,1.66
2022-11-19T10:34:26.947Z,2.02
2022-11-19T10:36:58.670Z,2.10
2022-11-19T10:39:32.456Z,2.02
2022-11-19T10:42:36.815Z,2.31
2022-11-19T10:45:14.244Z,2.21
2022-11-19T10:48:07.455Z,2.26
2022-11-19T10:50:35.593Z,2.34
2022-11-19T10:53:21.082Z,2.37
2022-11-19T10:55:54.685Z,2.32
2022-11-19T10:58:37.195Z,2.41
2022-11-19T11:01:12.737Z,2.48
2022-11-19T11:03:54.664Z,2.56
2022-11-19T11:06:21.051Z,2.41
2022-11-19T11:08:50.085Z,2.40
2022-11-19T11:11:21.419Z,2.52
2022-11-19T11:14:06.404Z,2.56
2022-11-19T11:19:33.737Z,2.66
2022-11-19T11:22:00.174Z,2.92
2022-11-19T11:24:37.070Z,2.90
2022-11-19T11:27:22.172Z,3.00
2022-11-19T11:29:48.551Z,3.16
2022-11-19T11:32:30.618Z,2.97
2022-11-19T11:34:58.268Z,2.92
2022-11-19T11:37:27.834Z,3.08
2022-11-19T11:39:56.188Z,3.17
2022-11-19T11:42:26.374Z,3.18
2022-11-19T11:44:56.253Z,3.43
2022-11-19T11:47:32.027Z,3.38
2022-11-19T11:50:25.660Z,3.28
2022-11-19T11:52:54.647Z,3.51
2022-11-19T11:55:23.740Z,3.30
2022-11-19T11:58:25.025Z,3.27
2022-11-19T12:00:55.247Z,3.32
2022-11-19T12:03:22.397Z,3.37
2022-11-19T12:06:06.434Z,3.20
2022-11-19T12:09:10.522Z,3.35
2022-11-19T12:11:55.217Z,3.20
2022-11-19T12:14:33.936Z,3.24
2022-11-19T12:17:19.858Z,3.06
2022-11-19T12:20:01.147Z,3.07
2022-11-19T12:22:36.860Z,3.16
2022-11-19T12:25:25.894Z,3.25
2022-11-19T12:28:21.702Z,3.22
2022-11-19T12:31:24.255Z,3.09
2022-11-19T12:34:05.805Z,3.04
2022-11-19T12:37:00.885Z,2.91
2022-11-19T12:39:42.389Z,3.16
2022-11-19T12:42:20.846Z,3.05
2022-11-19T12:44:54.212Z,2.90
2022-11-19T12:47:44.912Z,2.96
2022-11-19T12:50:34.115Z,2.82
2022-11-19T12:53:45.245Z,2.79
2022-11-19T12:56:39.590Z,2.80
2022-11-19T12:59:08.868Z,2.76
2022-11-19T13:01:42.516Z,2.65
2022-11-19T13:04:28.090Z,2.56
2022-11-19T13:07:10.459Z,2.65
2022-11-19T13:10:09.313Z,2.66
2022-11-19T13:12:41.335Z,2.50
2022-11-19T13:15:22.314Z,2.58
2022-11-19T13:17:53.225Z,2.57
2022-11-19T13:20:19.573Z,2.44
2022-11-19T13:22:49.384Z,2.36
2022-11-19T13:25:18.762Z,2.40
2022-11-19T13:27:48.274Z,2.20
2022-11-19T13:30:21.107Z,2.35
2022-11-19T13:33:26.710Z,2.37
2022-11-19T13:36:03.493Z,2.39
2022-11-19T13:38:43.591Z,2.42
2022-11-19T13:41:19.427Z,2.55
2022-11-19T13:44:04.804Z,2.28
2022-11-19T13:46:39.856Z,2.24
2022-11-19T13:49:31.942Z,2.41
2022-11-19T13:52:06.223Z,2.43
2022-11-19T13:54:38.573Z,2.50
2022-11-19T13:57:08.280Z,2.52
2022-11-19T13:59:36.928Z,2.47
2022-11-19T14:02:41.452Z,2.52
2022-11-19T14:05:35.499Z,2.49
2022-11-19T14:08:35.572Z,2.45
2022-11-19T14:11:17.181Z,2.34
2022-11-19T14:14:04.882Z,2.33
2022-11-19T14:17:14.329Z,2.46
2022-11-19T14:20:12.590Z,2.30
2022-11-19T14:23:14.609Z,2.13
2022-11-19T14:26:05.083Z,2.26
2022-11-19T14:28:41.697Z,2.08
2022-11-19T14:31:08.318Z,2.18
2022-11-19T14:33:46.649Z,2.33
2022-11-19T14:36:29.491Z,2.39
2022-11-19T14:39:00.109Z,2.42
2022-11-19T14:41:32.801Z,2.32
2022-11-19T14:44:31.827Z,2.17
2022-11-19T14:47:28.662Z,2.43
2022-11-19T14:49:58.953Z,2.33
2022-11-19T14:52:47.419Z,2.44
2022-11-19T14:55:13.803Z,2.39
2022-11-19T14:57:42.512Z,2.24
2022-11-19T15:00:15.222Z,2.43
2022-11-19T15:02:46.867Z,2.59
2022-11-19T15:05:13.225Z,2.59
2022-11-19T15:07:43.336Z,2.37
2022-11-19T15:10:09.823Z,2.38
2022-11-19T15:12:46.309Z,2.48
2022-11-19T15:15:24.843Z,2.72
2022-11-19T15:18:01.911Z,2.76
2022-11-19T15:21:05.297Z,2.71
2022-11-19T15:24:01.599Z,2.33
2022-11-19T15:26:45.357Z,2.55
2022-11-19T15:29:39.952Z,2.57
2022-11-19T15:32:12.568Z,2.62
2022-11-19T15:35:09.685Z,2.53
2022-11-19T15:37:45.932Z,2.59
2022-11-19T15:40:18.444Z,2.46
2022-11-19T15:43:21.958Z,2.53
2022-11-19T15:45:51.342Z,2.63
2022-11-19T15:48:34.981Z,2.40
2022-11-19T15:51:03.155Z,2.50
2022-11-19T15:53:29.591Z,2.58
2022-11-19T15:56:03.830Z,2.68
2022-11-19T15:58:41.130Z,2.61
2022-11-19T16:01:10.570Z,2.54
2022-11-19T16:03:39.159Z,2.56
2022-11-19T16:06:08.360Z,2.43
2022-11-19T16:08:35.592Z,2.55
2022-11-19T16:11:22.176Z,2.58
2022-11-19T16:14:13.739Z,2.57
2022-11-19T16:16:58.801Z,2.64
2022-11-19T16:19:25.701Z,2.73
2022-11-19T16:21:57.343Z,2.69
2022-11-19T16:24:44.831Z,2.58
2022-11-19T16:27:13.149Z,2.61
2022-11-19T16:29:42.384Z,2.46
2022-11-19T16:32:13.011Z,2.56
2022-11-19T16:34:40.491Z,2.75
2022-11-19T16:37:11.853Z,2.72
2022-11-19T16:39:38.967Z,2.70
2022-11-19T16:42:18.433Z,2.53
2022-11-19T16:44:47.555Z,2.60
2022-11-19T16:47:31.015Z,2.71
2022-11-19T16:50:06.261Z,2.83
2022-11-19T16:52:32.664Z,2.70
2022-11-19T16:55:00.074Z,2.82
2022-11-19T16:57:29.356Z,2.77
2022-11-19T17:00:01.977Z,2.68
2022-11-19T17:02:38.133Z,2.79
2022-11-19T17:05:09.187Z,2.81
2022-11-19T17:07:36.515Z,2.74
2022-11-19T17:10:31.136Z,2.95
2022-11-19T17:13:13.418Z,2.72
2022-11-19T17:15:42.589Z,2.74
2022-11-19T17:18:12.064Z,2.77
2022-11-19T17:20:38.396Z,2.86
2022-11-19T17:23:15.398Z,2.73
2022-11-19T17:26:06.851Z,2.64
2022-11-19T17:28:42.087Z,2.73
2022-11-19T17:31:18.378Z,2.92
2022-11-19T17:33:57.621Z,2.89
2022-11-19T17:36:27.928Z,2.79
2022-11-19T17:38:54.723Z,2.69
2022-11-19T17:41:47.913Z,2.69
2022-11-19T17:44:31.700Z,2.80
2022-11-19T17:46:58.841Z,2.78
2022-11-19T17:49:25.311Z,2.67
2022-11-19T17:51:52.415Z,2.72
2022-11-19T17:54:19.542Z,2.78
2022-11-19T17:56:46.388Z,2.78
2022-11-19T17:59:12.863Z,2.76
2022-11-19T18:01:39.358Z,2.69
2022-11-19T18:04:05.824Z,2.66
2022-11-19T18:06:33.518Z,2.85
2022-11-19T18:08:59.934Z,2.97
2022-11-19T18:11:26.635Z,2.77
2022-11-19T18:13:55.383Z,2.94
2022-11-19T18:16:24.658Z,2.76
2022-11-19T18:18:51.501Z,2.75
2022-11-19T18:21:20.916Z,2.81
2022-11-19T18:23:49.465Z,2.89
2022-11-19T18:26:18.012Z,2.78
2022-11-19T18:28:48.812Z,2.81
2022-11-19T18:31:27.219Z,3.01
2022-11-19T18:33:54.532Z,2.94
2022-11-19T18:36:21.595Z,3.01
2022-11-19T18:38:48.532Z,3.07
2022-11-19T18:41:16.189Z,3.04
2022-11-19T18:44:01.343Z,3.19
2022-11-19T18:46:27.784Z,2.94
2022-11-19T18:48:54.186Z,2.87
2022-11-19T18:51:23.310Z,2.91
2022-11-19T18:53:49.735Z,2.73
2022-11-19T18:56:17.298Z,2.79
2022-11-19T18:58:43.735Z,2.68
2022-11-19T19:01:11.071Z,2.69
2022-11-19T19:03:37.555Z,2.82
2022-11-19T19:06:07.085Z,2.80
2022-11-19T19:08:33.912Z,2.78
2022-11-19T19:11:18.930Z,2.66
2022-11-19T19:13:46.169Z,2.86
2022-11-19T19:16:13.559Z,2.80
2022-11-19T19:18:40.065Z,2.73
2022-11-19T19:21:32.714Z,2.81
2022-11-19T19:23:59.116Z,2.67
2022-11-19T19:26:25.582Z,2.61
2022-11-19T19:28:53.963Z,2.61
2022-11-19T19:31:22.091Z,2.67
2022-11-19T19:33:48.909Z,2.60
2022-11-19T19:36:16.900Z,2.58
2022-11-19T19:38:44.013Z,2.59
2022-11-19T19:41:14.683Z,2.63
2022-11-19T19:43:41.125Z,2.67
2022-11-19T19:46:10.166Z,2.62
2022-11-19T19:48:36.695Z,2.68
2022-11-19T19:51:03.938Z,2.69
2022-11-19T19:53:31.083Z,2.86
2022-11-19T19:56:27.908Z,2.71
2022-11-19T19:58:54.664Z,2.66
2022-11-19T20:01:39.404Z,2.73
2022-11-19T20:04:07.480Z,2.50
2022-11-19T20:06:35.367Z,2.62
2022-11-19T20:09:08.116Z,2.71
2022-11-19T20:11:36.463Z,2.54
2022-11-19T20:14:03.206Z,2.68
2022-11-19T20:16:31.783Z,2.78
2022-11-19T20:18:59.766Z,2.80
2022-11-19T20:21:33.713Z,2.64
2022-11-19T20:24:00.301Z,2.65
2022-11-19T20:26:29.141Z,2.57
2022-11-19T20:28:57.150Z,2.62
2022-11-19T20:31:24.522Z,2.87
2022-11-19T20:33:55.172Z,2.72
2022-11-19T20:36:24.352Z,2.63
2022-11-19T20:38:51.583Z,2.49
2022-11-19T20:41:38.596Z,2.75
2022-11-19T20:44:21.257Z,2.60
2022-11-19T20:46:59.117Z,2.56
2022-11-19T20:49:27.652Z,2.61
2022-11-19T20:51:55.370Z,2.79
2022-11-19T20:54:22.719Z,2.60
2022-11-19T20:56:51.024Z,2.62
2022-11-19T20:59:17.645Z,2.52
2022-11-19T21:01:44.095Z,2.44
2022-11-19T21:04:11.776Z,2.49
2022-11-19T21:06:38.537Z,2.49
2022-11-19T21:09:05.195Z,2.48
2022-11-19T21:11:33.043Z,2.61
2022-11-19T21:14:00.099Z,2.37
2022-11-19T21:16:28.765Z,2.62
2022-11-19T21:18:55.699Z,2.45
2022-11-19T21:21:23.965Z,2.34
2022-11-19T21:23:51.567Z,2.41
2022-11-19T21:26:20.413Z,2.46
2022-11-19T21:28:51.473Z,2.48
2022-11-19T21:31:21.243Z,2.52
2022-11-19T21:33:48.108Z,2.68
2022-11-19T21:36:14.895Z,2.52
2022-11-19T21:38:41.310Z,2.55
2022-11-19T21:41:07.912Z,2.40
2022-11-19T21:43:35.207Z,2.34
2022-11-19T21:46:01.792Z,2.23
2022-11-19T21:48:28.241Z,2.48
2022-11-19T21:50:54.704Z,2.44
2022-11-19T21:53:21.477Z,2.46
2022-11-19T21:55:49.213Z,2.31
2022-11-19T21:58:16.449Z,2.36
2022-11-19T22:00:43.921Z,2.45
2022-11-19T22:03:10.414Z,2.42
2022-11-19T22:05:36.870Z,2.27
2022-11-19T22:08:03.459Z,2.42
2022-11-19T22:10:29.894Z,2.38
2022-11-19T22:12:59.354Z,2.38
2022-11-19T22:15:27.016Z,2.31
2022-11-19T22:17:53.740Z,2.17
2022-11-19T22:20:20.218Z,2.21
2022-11-19T22:22:46.800Z,2.38
2022-11-19T22:25:14.085Z,2.30
2022-11-19T22:27:41.690Z,2.17
2022-11-19T22:30:10.096Z,2.17
2022-11-19T22:32:36.943Z,2.38
2022-11-19T22:35:03.979Z,2.34
2022-11-19T22:37:31.284Z,2.22
2022-11-19T22:39:57.686Z,2.25
2022-11-19T22:42:24.378Z,2.20
2022-11-19T22:44:51.479Z,2.17
2022-11-19T22:47:17.903Z,2.29
2022-11-19T22:49:44.310Z,2.22
2022-11-19T22:52:11.148Z,2.26
2022-11-19T22:54:41.535Z,2.27
2022-11-19T22:57:08.662Z,2.19
2022-11-19T22:59:35.285Z,2.27
2022-11-19T23:02:01.805Z,2.20
2022-11-19T23:04:28.950Z,2.19
2022-11-19T23:06:55.549Z,2.32
2022-11-19T23:09:22.437Z,2.38
2022-11-19T23:12:07.664Z,2.26
2022-11-19T23:14:34.110Z,2.30
2022-11-19T23:17:00.745Z,2.58
2022-11-19T23:19:27.194Z,2.40
2022-11-19T23:21:53.797Z,2.34
2022-11-19T23:24:20.294Z,2.32
2022-11-19T23:26:46.783Z,2.41
2022-11-19T23:29:13.250Z,2.27
2022-11-19T23:31:40.474Z,2.20
2022-11-19T23:34:07.442Z,2.17
2022-11-19T23:36:38.833Z,2.30
2022-11-19T23:39:09.581Z,2.47
2022-11-19T23:41:36.066Z,2.33
2022-11-19T23:44:02.962Z,2.28
2022-11-19T23:46:32.309Z,2.56
2022-11-19T23:48:59.783Z,2.31
2022-11-19T23:51:27.455Z,2.39
2022-11-19T23:53:54.253Z,2.24
2022-11-19T23:56:23.245Z,2.39
2022-11-19T23:58:50.113Z,2.34
